sensor_id;sensor_type;location;lat;lon;timestamp;pressure;altitude;pressure_sealevel;temperature;humidity
76998;BME280;65930;48.874;10.734;2023-11-21T00:00:16;95499.34;;;8.02;99.13
76998;BME280;65930;48.874;10.734;2023-11-21T00:02:47;95506.38;;;8.31;97.38
76998;BME280;65930;48.874;10.734;2023-11-21T00:05:16;95503.63;;;8.17;98.79
76998;BME280;65930;48.874;10.734;2023-11-21T00:07:44;95506.78;;;8.29;98.70
76998;BME280;65930;48.874;10.734;2023-11-21T00:10:13;95497.34;;;7.98;99.19
76998;BME280;65930;48.874;10.734;2023-11-21T00:12:43;95507.63;;;8.02;99.79
76998;BME280;65930;48.874;10.734;2023-11-21T00:15:12;95502.06;;;8.16;99.34
76998;BME280;65930;48.874;10.734;2023-11-21T00:17:40;95511.59;;;7.83;100.00
76998;BME280;65930;48.874;10.734;2023-11-21T00:20:09;95514.31;;;7.93;100.00
76998;BME280;65930;48.874;10.734;2023-11-21T00:22:40;95506.06;;;7.86;100.00
76998;BME280;65930;48.874;10.734;2023-11-21T00:25:09;95505.22;;;8.11;99.11
76998;BME280;65930;48.874;10.734;2023-11-21T00:27:37;95506.06;;;7.72;100.00
76998;BME280;65930;48.874;10.734;2023-11-21T00:30:06;95493.78;;;8.09;100.00
76998;BME280;65930;48.874;10.734;2023-11-21T00:32:37;95489.03;;;8.23;98.08
76998;BME280;65930;48.874;10.734;2023-11-21T00:35:06;95480.75;;;8.27;98.83
76998;BME280;65930;48.874;10.734;2023-11-21T00:37:34;95486.28;;;8.13;98.93
76998;BME280;65930;48.874;10.734;2023-11-21T00:40:03;95481.56;;;8.17;98.77
76998;BME280;65930;48.874;10.734;2023-11-21T00:42:33;95481.19;;;8.15;98.97
76998;BME280;65930;48.874;10.734;2023-11-21T00:45:01;95483.50;;;8.27;97.70
76998;BME280;65930;48.874;10.734;2023-11-21T00:47:30;95480.44;;;8.00;99.07
76998;BME280;65930;48.874;10.734;2023-11-21T00:49:59;95478.91;;;7.67;100.00
76998;BME280;65930;48.874;10.734;2023-11-21T00:52:27;95480.88;;;7.77;100.00
76998;BME280;65930;48.874;10.734;2023-11-21T00:54:55;95488.78;;;7.50;100.00
76998;BME280;65930;48.874;10.734;2023-11-21T00:57:26;95482.44;;;7.57;100.00
76998;BME280;65930;48.874;10.734;2023-11-21T00:59:54;95485.59;;;7.63;100.00
76998;BME280;65930;48.874;10.734;2023-11-21T01:02:22;95491.88;;;7.70;100.00
76998;BME280;65930;48.874;10.734;2023-11-21T01:04:53;95492.31;;;7.44;100.00
76998;BME280;65930;48.874;10.734;2023-11-21T01:07:23;95492.28;;;7.79;100.00
76998;BME280;65930;48.874;10.734;2023-11-21T01:09:54;95487.19;;;7.60;100.00
76998;BME280;65930;48.874;10.734;2023-11-21T01:12:25;95486.38;;;7.81;100.00
76998;BME280;65930;48.874;10.734;2023-11-21T01:14:54;95487.97;;;7.68;100.00
76998;BME280;65930;48.874;10.734;2023-11-21T01:17:21;95482.06;;;7.69;100.00
76998;BME280;65930;48.874;10.734;2023-11-21T01:19:50;95474.56;;;7.66;100.00
76998;BME280;65930;48.874;10.734;2023-11-21T01:22:18;95477.59;;;8.32;98.83
76998;BME280;65930;48.874;10.734;2023-11-21T01:24:54;95468.63;;;7.85;100.00
76998;BME280;65930;48.874;10.734;2023-11-21T01:27:22;95471.00;;;7.87;100.00
76998;BME280;65930;48.874;10.734;2023-11-21T01:29:50;95467.00;;;8.09;99.46
76998;BME280;65930;48.874;10.734;2023-11-21T01:32:20;95474.50;;;8.05;99.34
76998;BME280;65930;48.874;10.734;2023-11-21T01:34:50;95465.91;;;7.43;100.00
76998;BME280;65930;48.874;10.734;2023-11-21T01:37:18;95461.94;;;7.79;100.00
76998;BME280;65930;48.874;10.734;2023-11-21T01:39:46;95461.16;;;7.82;100.00
76998;BME280;65930;48.874;10.734;2023-11-21T01:42:16;95477.28;;;7.91;100.00
76998;BME280;65930;48.874;10.734;2023-11-21T01:44:45;95468.19;;;8.05;100.00
76998;BME280;65930;48.874;10.734;2023-11-21T01:47:13;95473.75;;;7.90;100.00
76998;BME280;65930;48.874;10.734;2023-11-21T01:49:43;95472.97;;;7.90;98.56
76998;BME280;65930;48.874;10.734;2023-11-21T01:52:12;95472.91;;;8.08;99.26
76998;BME280;65930;48.874;10.734;2023-11-21T01:54:41;95469.47;;;7.68;100.00
76998;BME280;65930;48.874;10.734;2023-11-21T01:57:10;95478.06;;;7.98;98.11
76998;BME280;65930;48.874;10.734;2023-11-21T01:59:41;95467.50;;;7.51;100.00
76998;BME280;65930;48.874;10.734;2023-11-21T02:02:09;95466.63;;;8.00;98.78
76998;BME280;65930;48.874;10.734;2023-11-21T02:04:37;95471.44;;;7.68;100.00
76998;BME280;65930;48.874;10.734;2023-11-21T02:07:05;95463.91;;;7.89;99.22
76998;BME280;65930;48.874;10.734;2023-11-21T02:09:34;95465.75;;;8.42;96.58
76998;BME280;65930;48.874;10.734;2023-11-21T02:12:05;95466.97;;;8.13;98.93
76998;BME280;65930;48.874;10.734;2023-11-21T02:14:34;95462.00;;;7.30;100.00
76998;BME280;65930;48.874;10.734;2023-11-21T02:17:03;95466.25;;;7.94;100.00
76998;BME280;65930;48.874;10.734;2023-11-21T02:19:31;95470.63;;;7.88;98.59
76998;BME280;65930;48.874;10.734;2023-11-21T02:22:02;95458.06;;;7.31;100.00
76998;BME280;65930;48.874;10.734;2023-11-21T02:24:34;95460.72;;;8.05;99.33
76998;BME280;65930;48.874;10.734;2023-11-21T02:27:03;95462.28;;;8.10;99.57
76998;BME280;65930;48.874;10.734;2023-11-21T02:29:33;95459.44;;;8.42;97.57
76998;BME280;65930;48.874;10.734;2023-11-21T02:32:01;95461.41;;;8.27;97.92
76998;BME280;65930;48.874;10.734;2023-11-21T02:34:30;95453.97;;;8.17;95.67
76998;BME280;65930;48.874;10.734;2023-11-21T02:36:58;95459.09;;;8.18;95.63
76998;BME280;65930;48.874;10.734;2023-11-21T02:39:26;95458.59;;;8.52;95.23
76998;BME280;65930;48.874;10.734;2023-11-21T02:41:55;95456.94;;;8.72;94.39
76998;BME280;65930;48.874;10.734;2023-11-21T02:44:23;95453.00;;;8.66;92.89
76998;BME280;65930;48.874;10.734;2023-11-21T02:46:52;95446.19;;;7.83;96.61
76998;BME280;65930;48.874;10.734;2023-11-21T02:49:20;95448.16;;;7.76;99.34
76998;BME280;65930;48.874;10.734;2023-11-21T02:51:48;95454.81;;;8.00;99.95
76998;BME280;65930;48.874;10.734;2023-11-21T02:54:17;95457.22;;;7.80;100.00
76998;BME280;65930;48.874;10.734;2023-11-21T02:56:46;95447.75;;;7.84;100.00
76998;BME280;65930;48.874;10.734;2023-11-21T02:59:15;95436.69;;;8.06;98.47
76998;BME280;65930;48.874;10.734;2023-11-21T03:01:43;95447.78;;;7.74;100.00
76998;BME280;65930;48.874;10.734;2023-11-21T03:04:11;95440.31;;;7.57;100.00
76998;BME280;65930;48.874;10.734;2023-11-21T03:06:44;95447.25;;;8.18;96.84
76998;BME280;65930;48.874;10.734;2023-11-21T03:09:12;95443.06;;;7.67;100.00
76998;BME280;65930;48.874;10.734;2023-11-21T03:11:40;95446.16;;;7.97;99.30
76998;BME280;65930;48.874;10.734;2023-11-21T03:14:08;95444.66;;;7.33;100.00
76998;BME280;65930;48.874;10.734;2023-11-21T03:16:38;95443.88;;;7.50;100.00
76998;BME280;65930;48.874;10.734;2023-11-21T03:19:07;95439.06;;;7.89;100.00
76998;BME280;65930;48.874;10.734;2023-11-21T03:21:35;95435.19;;;7.62;100.00
76998;BME280;65930;48.874;10.734;2023-11-21T03:24:04;95443.88;;;7.43;100.00
76998;BME280;65930;48.874;10.734;2023-11-21T03:26:33;95445.78;;;7.81;100.00
76998;BME280;65930;48.874;10.734;2023-11-21T03:29:01;95445.81;;;7.67;100.00
76998;BME280;65930;48.874;10.734;2023-11-21T03:31:29;95452.50;;;7.77;100.00
76998;BME280;65930;48.874;10.734;2023-11-21T03:33:58;95452.47;;;7.91;100.00
76998;BME280;65930;48.874;10.734;2023-11-21T03:36:26;95448.22;;;7.26;100.00
76998;BME280;65930;48.874;10.734;2023-11-21T03:38:54;95454.81;;;8.07;100.00
76998;BME280;65930;48.874;10.734;2023-11-21T03:41:22;95452.31;;;8.40;98.34
76998;BME280;65930;48.874;10.734;2023-11-21T03:43:50;95461.84;;;8.22;98.20
76998;BME280;65930;48.874;10.734;2023-11-21T03:46:18;95443.97;;;8.62;95.73
76998;BME280;65930;48.874;10.734;2023-11-21T03:48:46;95454.50;;;7.69;100.00
76998;BME280;65930;48.874;10.734;2023-11-21T03:51:15;95445.28;;;8.18;99.91
76998;BME280;65930;48.874;10.734;2023-11-21T03:53:43;95451.53;;;8.47;97.56
76998;BME280;65930;48.874;10.734;2023-11-21T03:56:11;95448.47;;;8.10;97.56
76998;BME280;65930;48.874;10.734;2023-11-21T03:58:41;95440.28;;;7.88;99.24
76998;BME280;65930;48.874;10.734;2023-11-21T04:01:09;95442.22;;;7.91;99.46
76998;BME280;65930;48.874;10.734;2023-11-21T04:03:37;95441.88;;;7.68;100.00
76998;BME280;65930;48.874;10.734;2023-11-21T04:06:08;95449.72;;;7.87;100.00
76998;BME280;65930;48.874;10.734;2023-11-21T04:08:38;95452.06;;;7.96;98.98
76998;BME280;65930;48.874;10.734;2023-11-21T04:11:06;95457.19;;;8.01;99.49
76998;BME280;65930;48.874;10.734;2023-11-21T04:13:33;95458.81;;;7.74;99.21
76998;BME280;65930;48.874;10.734;2023-11-21T04:16:02;95450.19;;;7.54;100.00
76998;BME280;65930;48.874;10.734;2023-11-21T04:18:30;95445.31;;;8.08;98.42
76998;BME280;65930;48.874;10.734;2023-11-21T04:20:58;95448.03;;;8.22;98.18
76998;BME280;65930;48.874;10.734;2023-11-21T04:23:28;95446.47;;;8.17;98.20
76998;BME280;65930;48.874;10.734;2023-11-21T04:25:58;95449.94;;;8.53;96.20
76998;BME280;65930;48.874;10.734;2023-11-21T04:28:26;95453.16;;;8.34;96.90
76998;BME280;65930;48.874;10.734;2023-11-21T04:30:54;95459.47;;;8.31;97.64
76998;BME280;65930;48.874;10.734;2023-11-21T04:33:22;95467.34;;;8.29;98.51
76998;BME280;65930;48.874;10.734;2023-11-21T04:35:57;95468.09;;;8.40;96.92
76998;BME280;65930;48.874;10.734;2023-11-21T04:38:25;95466.56;;;8.18;97.75
76998;BME280;65930;48.874;10.734;2023-11-21T04:40:53;95464.25;;;8.06;98.83
76998;BME280;65930;48.874;10.734;2023-11-21T04:43:22;95474.47;;;8.19;98.71
76998;BME280;65930;48.874;10.734;2023-11-21T04:45:50;95468.53;;;8.38;97.76
76998;BME280;65930;48.874;10.734;2023-11-21T04:48:18;95467.09;;;7.56;100.00
76998;BME280;65930;48.874;10.734;2023-11-21T04:50:46;95464.34;;;7.74;100.00
76998;BME280;65930;48.874;10.734;2023-11-21T04:53:14;95460.81;;;7.59;100.00
76998;BME280;65930;48.874;10.734;2023-11-21T04:55:42;95461.94;;;7.79;100.00
76998;BME280;65930;48.874;10.734;2023-11-21T04:58:10;95463.53;;;7.66;100.00
76998;BME280;65930;48.874;10.734;2023-11-21T05:00:40;95459.59;;;7.67;100.00
76998;BME280;65930;48.874;10.734;2023-11-21T05:03:09;95464.31;;;7.77;100.00
76998;BME280;65930;48.874;10.734;2023-11-21T05:05:37;95469.00;;;8.02;100.00
76998;BME280;65930;48.874;10.734;2023-11-21T05:08:05;95473.72;;;7.94;100.00
76998;BME280;65930;48.874;10.734;2023-11-21T05:10:34;95469.81;;;7.91;100.00
76998;BME280;65930;48.874;10.734;2023-11-21T05:13:05;95472.13;;;8.11;99.90
76998;BME280;65930;48.874;10.734;2023-11-21T05:15:36;95480.41;;;8.11;99.83
76998;BME280;65930;48.874;10.734;2023-11-21T05:18:06;95474.84;;;8.21;99.71
76998;BME280;65930;48.874;10.734;2023-11-21T05:20:34;95475.56;;;8.50;97.93
76998;BME280;65930;48.874;10.734;2023-11-21T05:23:02;95476.69;;;8.67;96.54
76998;BME280;65930;48.874;10.734;2023-11-21T05:25:30;95477.59;;;8.39;97.40
76998;BME280;65930;48.874;10.734;2023-11-21T05:27:59;95482.75;;;8.30;99.24
76998;BME280;65930;48.874;10.734;2023-11-21T05:30:28;95478.72;;;8.45;99.12
76998;BME280;65930;48.874;10.734;2023-11-21T05:32:56;95481.56;;;8.17;99.57
76998;BME280;65930;48.874;10.734;2023-11-21T05:35:25;95478.81;;;8.20;99.62
76998;BME280;65930;48.874;10.734;2023-11-21T05:37:53;95488.25;;;8.33;99.53
76998;BME280;65930;48.874;10.734;2023-11-21T05:40:22;95481.53;;;8.34;98.91
76998;BME280;65930;48.874;10.734;2023-11-21T05:42:51;95481.47;;;8.52;98.43
76998;BME280;65930;48.874;10.734;2023-11-21T05:45:19;95483.88;;;8.43;97.95
76998;BME280;65930;48.874;10.734;2023-11-21T05:47:47;95487.16;;;7.81;100.00
76998;BME280;65930;48.874;10.734;2023-11-21T05:50:16;95489.84;;;8.20;99.52
76998;BME280;65930;48.874;10.734;2023-11-21T05:52:47;95483.50;;;8.23;99.53
76998;BME280;65930;48.874;10.734;2023-11-21T05:55:16;95500.53;;;7.86;100.00
76998;BME280;65930;48.874;10.734;2023-11-21T05:57:44;95487.91;;;8.00;100.00
76998;BME280;65930;48.874;10.734;2023-11-21T06:00:14;95487.91;;;8.00;100.00
76998;BME280;65930;48.874;10.734;2023-11-21T06:02:48;95498.88;;;8.31;99.28
76998;BME280;65930;48.874;10.734;2023-11-21T06:05:17;95492.59;;;8.24;98.79
76998;BME280;65930;48.874;10.734;2023-11-21T06:07:47;95496.09;;;8.42;98.07
76998;BME280;65930;48.874;10.734;2023-11-21T06:10:15;95502.88;;;8.06;99.70
76998;BME280;65930;48.874;10.734;2023-11-21T06:12:46;95512.31;;;8.19;99.65
76998;BME280;65930;48.874;10.734;2023-11-21T06:15:15;95510.72;;;8.18;99.56
76998;BME280;65930;48.874;10.734;2023-11-21T06:17:46;95512.38;;;7.87;100.00
76998;BME280;65930;48.874;10.734;2023-11-21T06:20:19;95506.81;;;8.01;100.00
76998;BME280;65930;48.874;10.734;2023-11-21T06:22:49;95519.44;;;7.98;100.00
76998;BME280;65930;48.874;10.734;2023-11-21T06:25:18;95517.88;;;7.62;100.00
76998;BME280;65930;48.874;10.734;2023-11-21T06:27:48;95514.31;;;8.01;100.00
76998;BME280;65930;48.874;10.734;2023-11-21T06:30:16;95523.34;;;8.15;100.00
76998;BME280;65930;48.874;10.734;2023-11-21T06:32:47;95518.59;;;8.12;99.75
76998;BME280;65930;48.874;10.734;2023-11-21T06:35:15;95524.16;;;8.05;100.00
76998;BME280;65930;48.874;10.734;2023-11-21T06:37:44;95523.41;;;7.83;100.00
76998;BME280;65930;48.874;10.734;2023-11-21T06:40:18;95522.63;;;7.72;100.00
76998;BME280;65930;48.874;10.734;2023-11-21T06:42:47;95523.38;;;7.80;100.00
76998;BME280;65930;48.874;10.734;2023-11-21T06:45:15;95529.31;;;7.71;100.00
76998;BME280;65930;48.874;10.734;2023-11-21T06:47:46;95524.19;;;7.80;100.00
76998;BME280;65930;48.874;10.734;2023-11-21T06:50:18;95528.91;;;7.80;100.00
76998;BME280;65930;48.874;10.734;2023-11-21T06:52:46;95536.38;;;7.79;100.00
76998;BME280;65930;48.874;10.734;2023-11-21T06:55:16;95535.22;;;7.48;100.00
76998;BME280;65930;48.874;10.734;2023-11-21T06:57:47;95541.53;;;7.74;100.00
76998;BME280;65930;48.874;10.734;2023-11-21T07:00:17;95536.78;;;7.67;100.00
76998;BME280;65930;48.874;10.734;2023-11-21T07:02:45;95549.38;;;7.61;100.00
76998;BME280;65930;48.874;10.734;2023-11-21T07:05:14;95550.19;;;7.51;100.00
76998;BME280;65930;48.874;10.734;2023-11-21T07:07:42;95550.97;;;7.62;100.00
76998;BME280;65930;48.874;10.734;2023-11-21T07:10:10;95557.25;;;7.66;100.00
76998;BME280;65930;48.874;10.734;2023-11-21T07:12:46;95564.75;;;7.69;100.00
76998;BME280;65930;48.874;10.734;2023-11-21T07:15:15;95562.81;;;7.70;100.00
76998;BME280;65930;48.874;10.734;2023-11-21T07:17:43;95560.41;;;7.54;100.00
76998;BME280;65930;48.874;10.734;2023-11-21T07:20:11;95569.06;;;7.38;100.00
76998;BME280;65930;48.874;10.734;2023-11-21T07:22:40;95571.03;;;7.52;100.00
76998;BME280;65930;48.874;10.734;2023-11-21T07:25:17;95571.03;;;7.34;100.00
76998;BME280;65930;48.874;10.734;2023-11-21T07:27:49;95561.19;;;7.44;100.00
76998;BME280;65930;48.874;10.734;2023-11-21T07:30:17;95570.66;;;7.64;100.00
76998;BME280;65930;48.874;10.734;2023-11-21T07:32:45;95561.56;;;7.35;100.00
76998;BME280;65930;48.874;10.734;2023-11-21T07:35:15;95569.84;;;7.35;100.00
76998;BME280;65930;48.874;10.734;2023-11-21T07:37:43;95573.81;;;7.77;100.00
76998;BME280;65930;48.874;10.734;2023-11-21T07:40:11;95578.56;;;7.69;100.00
76998;BME280;65930;48.874;10.734;2023-11-21T07:42:40;95584.06;;;7.87;100.00
76998;BME280;65930;48.874;10.734;2023-11-21T07:45:10;95582.47;;;7.86;100.00
76998;BME280;65930;48.874;10.734;2023-11-21T07:47:39;95593.53;;;7.93;100.00
76998;BME280;65930;48.874;10.734;2023-11-21T07:50:08;95589.56;;;8.05;100.00
76998;BME280;65930;48.874;10.734;2023-11-21T07:52:36;95593.50;;;7.89;100.00
76998;BME280;65930;48.874;10.734;2023-11-21T07:55:05;95593.50;;;8.18;100.00
76998;BME280;65930;48.874;10.734;2023-11-21T07:57:34;95597.41;;;8.17;100.00
76998;BME280;65930;48.874;10.734;2023-11-21T08:00:02;95594.28;;;8.25;100.00
76998;BME280;65930;48.874;10.734;2023-11-21T08:02:35;95594.66;;;8.52;100.00
76998;BME280;65930;48.874;10.734;2023-11-21T08:05:03;95599.38;;;8.52;99.94
76998;BME280;65930;48.874;10.734;2023-11-21T08:07:31;95601.34;;;8.55;100.00
76998;BME280;65930;48.874;10.734;2023-11-21T08:09:59;95608.47;;;8.06;100.00
76998;BME280;65930;48.874;10.734;2023-11-21T08:12:27;95601.38;;;8.19;100.00
76998;BME280;65930;48.874;10.734;2023-11-21T08:14:55;95602.16;;;8.48;100.00
76998;BME280;65930;48.874;10.734;2023-11-21T08:17:23;95599.41;;;8.48;99.68
76998;BME280;65930;48.874;10.734;2023-11-21T08:19:53;95605.31;;;8.15;100.00
76998;BME280;65930;48.874;10.734;2023-11-21T08:22:21;95604.94;;;8.20;100.00
76998;BME280;65930;48.874;10.734;2023-11-21T08:24:50;95608.88;;;8.33;100.00
76998;BME280;65930;48.874;10.734;2023-11-21T08:27:18;95607.28;;;8.35;100.00
76998;BME280;65930;48.874;10.734;2023-11-21T08:29:46;95601.28;;;8.69;100.00
76998;BME280;65930;48.874;10.734;2023-11-21T08:32:14;95604.50;;;8.57;99.68
76998;BME280;65930;48.874;10.734;2023-11-21T08:34:42;95609.22;;;8.49;99.11
76998;BME280;65930;48.874;10.734;2023-11-21T08:37:16;95606.47;;;8.46;100.00
76998;BME280;65930;48.874;10.734;2023-11-21T08:39:44;95612.03;;;8.21;100.00
76998;BME280;65930;48.874;10.734;2023-11-21T08:42:12;95617.53;;;8.21;100.00
76998;BME280;65930;48.874;10.734;2023-11-21T08:44:40;95615.56;;;8.25;100.00
76998;BME280;65930;48.874;10.734;2023-11-21T08:47:09;95616.75;;;8.10;100.00
76998;BME280;65930;48.874;10.734;2023-11-21T08:49:37;95623.84;;;7.82;100.00
76998;BME280;65930;48.874;10.734;2023-11-21T08:52:05;95630.94;;;8.15;100.00
76998;BME280;65930;48.874;10.734;2023-11-21T08:54:34;95625.00;;;7.71;100.00
76998;BME280;65930;48.874;10.734;2023-11-21T08:57:03;95625.03;;;7.92;100.00
76998;BME280;65930;48.874;10.734;2023-11-21T08:59:31;95625.81;;;8.46;100.00
76998;BME280;65930;48.874;10.734;2023-11-21T09:01:59;95625.81;;;8.24;100.00
76998;BME280;65930;48.874;10.734;2023-11-21T09:04:27;95629.34;;;8.04;100.00
76998;BME280;65930;48.874;10.734;2023-11-21T09:06:55;95634.50;;;8.30;100.00
76998;BME280;65930;48.874;10.734;2023-11-21T09:09:26;95637.63;;;8.25;100.00
76998;BME280;65930;48.874;10.734;2023-11-21T09:11:55;95635.28;;;8.20;100.00
76998;BME280;65930;48.874;10.734;2023-11-21T09:14:23;95637.63;;;8.25;100.00
76998;BME280;65930;48.874;10.734;2023-11-21T09:16:51;95636.06;;;7.88;100.00
76998;BME280;65930;48.874;10.734;2023-11-21T09:19:19;95640.81;;;8.02;100.00
76998;BME280;65930;48.874;10.734;2023-11-21T09:21:48;95644.72;;;8.08;100.00
76998;BME280;65930;48.874;10.734;2023-11-21T09:24:16;95648.69;;;8.25;100.00
76998;BME280;65930;48.874;10.734;2023-11-21T09:26:44;95656.53;;;8.26;100.00
76998;BME280;65930;48.874;10.734;2023-11-21T09:29:13;95647.88;;;8.49;100.00
76998;BME280;65930;48.874;10.734;2023-11-21T09:31:41;95648.28;;;8.37;100.00
76998;BME280;65930;48.874;10.734;2023-11-21T09:34:10;95654.97;;;8.15;100.00
76998;BME280;65930;48.874;10.734;2023-11-21T09:36:38;95654.19;;;8.46;100.00
76998;BME280;65930;48.874;10.734;2023-11-21T09:39:07;95656.19;;;8.35;100.00
76998;BME280;65930;48.874;10.734;2023-11-21T09:41:43;95649.47;;;8.57;100.00
76998;BME280;65930;48.874;10.734;2023-11-21T09:44:18;95665.66;;;8.34;100.00
76998;BME280;65930;48.874;10.734;2023-11-21T09:46:51;95662.09;;;8.58;100.00
76998;BME280;65930;48.874;10.734;2023-11-21T09:49:23;95658.91;;;8.67;100.00
76998;BME280;65930;48.874;10.734;2023-11-21T09:51:55;95660.50;;;8.50;100.00
76998;BME280;65930;48.874;10.734;2023-11-21T09:54:24;95662.88;;;8.48;100.00
76998;BME280;65930;48.874;10.734;2023-11-21T09:56:53;95662.09;;;8.30;100.00
76998;BME280;65930;48.874;10.734;2023-11-21T09:59:23;95658.13;;;8.63;100.00
76998;BME280;65930;48.874;10.734;2023-11-21T10:01:52;95663.63;;;8.70;100.00
76998;BME280;65930;48.874;10.734;2023-11-21T10:04:20;95658.06;;;8.88;100.00
76998;BME280;65930;48.874;10.734;2023-11-21T10:06:54;95647.84;;;8.81;100.00
76998;BME280;65930;48.874;10.734;2023-11-21T10:09:24;95651.75;;;8.91;100.00
76998;BME280;65930;48.874;10.734;2023-11-21T10:11:56;95653.38;;;8.67;100.00
76998;BME280;65930;48.874;10.734;2023-11-21T10:14:41;95653.31;;;8.88;100.00
76998;BME280;65930;48.874;10.734;2023-11-21T10:17:10;95663.94;;;8.97;100.00
76998;BME280;65930;48.874;10.734;2023-11-21T10:19:40;95658.91;;;8.49;100.00
76998;BME280;65930;48.874;10.734;2023-11-21T10:22:09;95656.59;;;8.30;100.00
76998;BME280;65930;48.874;10.734;2023-11-21T10:24:37;95654.19;;;8.11;100.00
76998;BME280;65930;48.874;10.734;2023-11-21T10:27:17;95655.75;;;8.54;100.00
76998;BME280;65930;48.874;10.734;2023-11-21T10:29:47;95655.78;;;8.58;100.00
76998;BME280;65930;48.874;10.734;2023-11-21T10:32:15;95659.34;;;8.33;100.00
76998;BME280;65930;48.874;10.734;2023-11-21T10:34:55;95656.56;;;8.37;100.00
76998;BME280;65930;48.874;10.734;2023-11-21T10:37:24;95646.28;;;8.59;100.00
76998;BME280;65930;48.874;10.734;2023-11-21T10:39:57;95659.31;;;8.51;100.00
76998;BME280;65930;48.874;10.734;2023-11-21T10:42:25;95656.16;;;8.46;100.00
76998;BME280;65930;48.874;10.734;2023-11-21T10:44:55;95659.69;;;8.67;100.00
76998;BME280;65930;48.874;10.734;2023-11-21T10:47:23;95652.56;;;8.77;100.00
76998;BME280;65930;48.874;10.734;2023-11-21T10:49:53;95665.19;;;8.85;100.00
76998;BME280;65930;48.874;10.734;2023-11-21T10:52:21;95668.22;;;9.19;99.29
76998;BME280;65930;48.874;10.734;2023-11-21T10:54:49;95659.78;;;9.47;97.62
76998;BME280;65930;48.874;10.734;2023-11-21T10:57:18;95660.44;;;8.89;100.00
76998;BME280;65930;48.874;10.734;2023-11-21T10:59:48;95660.47;;;8.75;100.00
76998;BME280;65930;48.874;10.734;2023-11-21T11:02:23;95664.72;;;9.01;100.00
76998;BME280;65930;48.874;10.734;2023-11-21T11:04:55;95656.44;;;9.01;99.03
76998;BME280;65930;48.874;10.734;2023-11-21T11:07:27;95665.00;;;9.31;99.57
76998;BME280;65930;48.874;10.734;2023-11-21T11:09:58;95656.50;;;8.79;100.00
76998;BME280;65930;48.874;10.734;2023-11-21T11:12:36;95660.03;;;8.91;99.93
76998;BME280;65930;48.874;10.734;2023-11-21T11:15:05;95656.38;;;9.22;98.04
76998;BME280;65930;48.874;10.734;2023-11-21T11:17:38;95655.03;;;9.48;98.46
76998;BME280;65930;48.874;10.734;2023-11-21T11:20:09;95661.84;;;9.36;98.25
76998;BME280;65930;48.874;10.734;2023-11-21T11:22:48;95656.66;;;9.45;98.73
76998;BME280;65930;48.874;10.734;2023-11-21T11:25:30;95655.59;;;9.18;98.37
76998;BME280;65930;48.874;10.734;2023-11-21T13:05:02;95688.41;;;9.02;100.00
76998;BME280;65930;48.874;10.734;2023-11-21T13:07:41;95691.25;;;8.59;100.00
76998;BME280;65930;48.874;10.734;2023-11-21T13:10:13;95695.19;;;8.72;100.00
76998;BME280;65930;48.874;10.734;2023-11-21T13:12:43;95697.56;;;8.60;100.00
76998;BME280;65930;48.874;10.734;2023-11-21T13:15:20;95693.22;;;8.55;100.00
76998;BME280;65930;48.874;10.734;2023-11-21T13:17:48;95696.75;;;8.73;100.00
76998;BME280;65930;48.874;10.734;2023-11-21T13:20:19;95695.50;;;9.03;100.00
76998;BME280;65930;48.874;10.734;2023-11-21T13:22:52;95703.84;;;8.74;100.00
76998;BME280;65930;48.874;10.734;2023-11-21T13:25:21;95702.16;;;9.23;100.00
76998;BME280;65930;48.874;10.734;2023-11-21T13:27:49;95701.47;;;8.91;100.00
76998;BME280;65930;48.874;10.734;2023-11-21T13:30:17;95707.03;;;8.62;100.00
76998;BME280;65930;48.874;10.734;2023-11-21T13:32:50;95709.34;;;8.96;100.00
76998;BME280;65930;48.874;10.734;2023-11-21T13:35:19;95716.38;;;9.18;100.00
76998;BME280;65930;48.874;10.734;2023-11-21T13:38:02;95715.66;;;8.82;100.00
76998;BME280;65930;48.874;10.734;2023-11-21T13:40:33;95715.28;;;8.69;100.00
76998;BME280;65930;48.874;10.734;2023-11-21T13:43:10;95715.69;;;8.61;100.00
76998;BME280;65930;48.874;10.734;2023-11-21T13:45:39;95720.28;;;9.31;100.00
76998;BME280;65930;48.874;10.734;2023-11-21T13:48:13;95721.16;;;9.14;100.00
76998;BME280;65930;48.874;10.734;2023-11-21T13:50:43;95726.31;;;8.98;100.00
76998;BME280;65930;48.874;10.734;2023-11-21T13:53:15;95727.38;;;9.39;99.98
76998;BME280;65930;48.874;10.734;2023-11-21T13:55:48;95730.84;;;9.57;98.03
76998;BME280;65930;48.874;10.734;2023-11-21T13:58:17;95731.50;;;8.67;100.00
76998;BME280;65930;48.874;10.734;2023-11-21T14:00:49;95734.16;;;9.10;100.00
76998;BME280;65930;48.874;10.734;2023-11-21T14:03:23;95739.34;;;8.94;100.00
76998;BME280;65930;48.874;10.734;2023-11-21T14:06:01;95743.31;;;8.86;100.00
76998;BME280;65930;48.874;10.734;2023-11-21T14:08:35;95751.97;;;8.80;100.00
76998;BME280;65930;48.874;10.734;2023-11-21T14:11:03;95747.19;;;9.06;100.00
76998;BME280;65930;48.874;10.734;2023-11-21T14:13:33;95748.72;;;9.32;99.52
76998;BME280;65930;48.874;10.734;2023-11-21T14:16:01;95745.69;;;8.76;100.00
76998;BME280;65930;48.874;10.734;2023-11-21T14:18:29;95749.41;;;9.57;98.19
76998;BME280;65930;48.874;10.734;2023-11-21T14:21:04;95735.75;;;9.07;100.00
76998;BME280;65930;48.874;10.734;2023-11-21T14:23:35;95751.66;;;9.87;95.92
76998;BME280;65930;48.874;10.734;2023-11-21T14:26:05;95759.47;;;8.83;100.00
76998;BME280;65930;48.874;10.734;2023-11-21T14:28:34;95764.41;;;9.59;98.45
76998;BME280;65930;48.874;10.734;2023-11-21T14:31:03;95751.91;;;9.23;98.75
76998;BME280;65930;48.874;10.734;2023-11-21T14:33:31;95757.34;;;9.51;98.09
76998;BME280;65930;48.874;10.734;2023-11-21T14:36:05;95751.78;;;9.65;96.63
76998;BME280;65930;48.874;10.734;2023-11-21T14:38:34;95758.88;;;9.63;95.13
76998;BME280;65930;48.874;10.734;2023-11-21T14:41:03;95758.06;;;9.69;96.15